createdAt,value
2019-03-13T00:01:08.747Z,95951.23
2019-03-13T00:04:15.763Z,95960.54
2019-03-13T00:07:22.705Z,95976.45
2019-03-13T00:10:32.403Z,95982.30
2019-03-13T00:13:38.514Z,95989.97
2019-03-13T00:16:46.120Z,95954.65
2019-03-13T00:19:52.988Z,95965.72
2019-03-13T00:23:00.059Z,95967.73
2019-03-13T00:26:06.959Z,95964.55
2019-03-13T00:29:15.039Z,95972.30
2019-03-13T00:32:22.050Z,95968.45
2019-03-13T00:35:28.978Z,95968.75
2019-03-13T00:38:35.905Z,95965.53
2019-03-13T00:41:43.399Z,95963.45
2019-03-13T00:44:50.492Z,95972.14
2019-03-13T00:47:57.345Z,95971.38
2019-03-13T00:51:06.056Z,95983.56
2019-03-13T00:54:12.984Z,95970.59
2019-03-13T00:57:21.115Z,95973.91
2019-03-13T01:00:47.127Z,95965.33
2019-03-13T01:04:00.873Z,95964.02
2019-03-13T01:07:10.088Z,95961.11
2019-03-13T01:10:17.109Z,95963.25
2019-03-13T01:13:25.323Z,95958.16
2019-03-13T01:16:32.210Z,95962.25
2019-03-13T01:19:39.042Z,95970.77
2019-03-13T01:22:48.768Z,95968.28
2019-03-13T01:25:56.082Z,95987.78
2019-03-13T01:29:03.350Z,95977.23
2019-03-13T01:32:36.507Z,95977.98
2019-03-13T01:35:49.738Z,95981.57
2019-03-13T01:38:56.660Z,95986.75
2019-03-13T01:42:03.542Z,95973.81
2019-03-13T01:45:11.071Z,95979.22
2019-03-13T01:48:17.851Z,95980.50
2019-03-13T01:51:24.746Z,95994.63
2019-03-13T01:54:31.611Z,95988.98
2019-03-13T01:57:38.407Z,95984.52
2019-03-13T02:00:48.083Z,95968.94
2019-03-13T02:03:54.952Z,95973.44
2019-03-13T02:07:01.887Z,95968.97
2019-03-13T02:10:10.223Z,95977.81
2019-03-13T02:13:17.162Z,95985.63
2019-03-13T02:16:24.035Z,95975.08
2019-03-13T02:19:30.904Z,95978.27
2019-03-13T04:32:31.942Z,96236.74
2019-03-13T04:35:38.875Z,96243.92
2019-03-13T04:38:45.867Z,96254.16
2019-03-13T04:41:53.022Z,96261.48
2019-03-13T04:44:59.955Z,96268.84
2019-03-13T04:48:06.922Z,96276.41
2019-03-13T04:51:15.524Z,96287.84
2019-03-13T04:54:22.403Z,96306.02
2019-03-13T04:57:29.466Z,96309.78
2019-03-13T05:00:36.454Z,96311.77
2019-03-13T05:03:43.391Z,96316.39
2019-03-13T05:06:50.509Z,96320.23
2019-03-13T05:09:57.475Z,96326.23
2019-03-13T05:13:05.323Z,96332.20
2019-03-13T05:16:12.365Z,96343.01
2019-03-13T05:19:19.301Z,96346.06
2019-03-13T05:22:26.285Z,96352.91
2019-03-13T05:25:33.264Z,96360.28
2019-03-13T05:28:40.180Z,96360.73
2019-03-13T05:31:47.122Z,96358.89
2019-03-13T05:34:54.474Z,96362.08
2019-03-13T05:38:01.440Z,96352.40
2019-03-13T05:41:08.752Z,96358.94
2019-03-13T05:44:18.264Z,96367.61
2019-03-13T05:47:25.206Z,96370.06
2019-03-13T05:50:32.345Z,96373.87
2019-03-13T05:53:39.359Z,96362.47
2019-03-13T05:56:46.310Z,96372.84
2019-03-13T05:59:53.346Z,96374.56
2019-03-13T06:03:00.224Z,96372.91
2019-03-13T06:06:07.291Z,96376.71
2019-03-13T06:09:14.426Z,96394.57
2019-03-13T06:12:21.709Z,96385.27
2019-03-13T06:15:28.870Z,96381.94
2019-03-13T06:18:35.993Z,96390.53
2019-03-13T06:21:42.959Z,96394.72
2019-03-13T06:24:50.025Z,96407.48
2019-03-13T06:27:57.073Z,96415.22
2019-03-13T06:31:04.134Z,96420.44
2019-03-13T06:34:11.778Z,96439.39
2019-03-13T06:37:19.203Z,96440.15
2019-03-13T06:40:26.130Z,96457.00
2019-03-13T06:43:33.058Z,96454.86
2019-03-13T06:46:40.007Z,96446.20
2019-03-13T06:49:49.737Z,96459.98
2019-03-13T06:52:56.639Z,96461.02
2019-03-13T06:56:03.606Z,96454.52
2019-03-13T06:59:16.367Z,96451.64
2019-03-13T07:02:51.794Z,96458.17
2019-03-13T07:06:26.677Z,96461.59
2019-03-13T07:09:39.744Z,96457.14
2019-03-13T07:12:54.488Z,96453.48
2019-03-13T07:16:32.594Z,96450.48
2019-03-13T07:19:59.599Z,96449.13
2019-03-13T07:23:15.887Z,96448.63
2019-03-13T07:26:31.575Z,96441.73
2019-03-13T07:29:43.995Z,96445.08
2019-03-13T07:33:21.120Z,96440.14
2019-03-13T07:36:38.429Z,96437.91
2019-03-13T07:40:12.684Z,96440.81
2019-03-13T07:43:41.068Z,96450.08
2019-03-13T07:47:00.706Z,96447.42
2019-03-13T07:50:31.936Z,96437.22
2019-03-13T07:54:03.732Z,96445.71
2019-03-13T07:57:18.530Z,96451.66
2019-03-13T08:00:34.050Z,96445.38
2019-03-13T08:03:56.028Z,96443.13
2019-03-13T08:07:09.318Z,96434.87
2019-03-13T08:10:27.802Z,96440.27
2019-03-13T08:14:02.742Z,96448.50
2019-03-13T08:17:28.770Z,96451.98
2019-03-13T08:21:13.262Z,96460.45
2019-03-13T08:24:48.059Z,96458.05
2019-03-13T08:28:26.162Z,96464.11
2019-03-13T08:31:42.083Z,96464.67
2019-03-13T08:35:05.149Z,96454.94
2019-03-13T08:38:22.665Z,96462.14
2019-03-13T08:41:48.699Z,96457.39
2019-03-13T08:45:14.517Z,96455.53
2019-03-13T08:48:34.706Z,96444.23
2019-03-13T08:51:57.428Z,96437.47
2019-03-13T08:55:22.210Z,96429.38
2019-03-13T08:58:48.107Z,96432.86
2019-03-13T09:02:12.507Z,96427.56
2019-03-13T09:05:41.090Z,96427.55
2019-03-13T09:09:16.190Z,96426.12
2019-03-13T09:12:47.896Z,96422.69
2019-03-13T09:16:09.829Z,96429.79
2019-03-13T09:19:34.436Z,96433.95
2019-03-13T09:22:50.104Z,96424.67
2019-03-13T09:26:22.027Z,96416.00
2019-03-13T09:29:46.470Z,96422.94
2019-03-13T09:33:15.079Z,96415.75
2019-03-13T09:36:32.671Z,96433.11
2019-03-13T09:40:04.518Z,96429.77
2019-03-13T09:43:25.298Z,96434.41
2019-03-13T09:46:50.201Z,96437.73
2019-03-13T09:50:21.795Z,96430.50
2019-03-13T09:53:44.030Z,96426.63
2019-03-13T09:57:00.892Z,96428.01
2019-03-13T10:00:32.418Z,96422.92
2019-03-13T10:04:04.321Z,96427.34
2019-03-13T10:07:28.861Z,96427.09
2019-03-13T10:11:03.470Z,96427.05
2019-03-13T10:14:22.473Z,96419.61
2019-03-13T10:17:47.565Z,96413.72
2019-03-13T10:21:05.104Z,96406.72
2019-03-13T10:24:31.186Z,96402.75
2019-03-13T10:27:50.457Z,96393.40
2019-03-13T10:31:18.764Z,96390.73
2019-03-13T10:34:44.839Z,96378.75
2019-03-13T10:38:13.127Z,96372.20
2019-03-13T10:41:26.856Z,96367.11
2019-03-13T10:44:59.132Z,96367.11
2019-03-13T10:48:27.741Z,96376.34
2019-03-13T10:51:44.103Z,96383.03
2019-03-13T10:55:08.807Z,96380.91
2019-03-13T10:58:27.493Z,96376.63
2019-03-13T11:01:56.337Z,96380.77
2019-03-13T11:05:22.258Z,96379.14
2019-03-13T11:08:42.426Z,96391.59
2019-03-13T11:12:11.063Z,96391.72
2019-03-13T11:15:40.110Z,96387.11
2019-03-13T11:18:59.543Z,96402.50
2019-03-13T11:22:25.355Z,96402.77
2019-03-13T11:25:42.411Z,96391.61
2019-03-13T11:29:09.543Z,96394.25
2019-03-13T11:32:45.463Z,96392.42
2019-03-13T11:36:10.023Z,96403.73
2019-03-13T11:39:33.952Z,96391.60
2019-03-13T11:42:50.739Z,96390.62
2019-03-13T11:46:16.271Z,96384.50
2019-03-13T11:49:51.256Z,96367.11
2019-03-13T11:53:14.063Z,96363.75
2019-03-13T11:56:48.497Z,96373.42
2019-03-13T12:00:09.576Z,96377.54
2019-03-13T12:03:36.028Z,96380.14
2019-03-13T12:07:02.561Z,96367.06
2019-03-13T12:10:30.062Z,96358.05
2019-03-13T12:14:08.618Z,96358.21
2019-03-13T12:17:32.157Z,96348.80
2019-03-13T12:20:48.859Z,96343.83
2019-03-13T12:24:10.016Z,96316.57
2019-03-13T12:27:30.130Z,96320.20
2019-03-13T12:31:00.518Z,96293.27
2019-03-13T12:34:38.524Z,96302.77
2019-03-13T12:37:55.250Z,96281.80
2019-03-13T12:41:24.186Z,96276.91
2019-03-13T12:44:52.997Z,96291.95
2019-03-13T12:48:37.899Z,96296.37
2019-03-13T12:52:01.902Z,96281.63
2019-03-13T12:55:21.938Z,96279.73
2019-03-13T12:58:42.274Z,96268.54
2019-03-13T13:02:07.022Z,96255.98
2019-03-13T13:05:36.308Z,96242.85
2019-03-13T13:09:12.688Z,96238.97
2019-03-13T13:12:47.188Z,96238.55
2019-03-13T13:16:03.960Z,96243.17
2019-03-13T13:19:15.479Z,96232.62
2019-03-13T13:22:22.484Z,96237.52
2019-03-13T13:25:29.428Z,96238.95
2019-03-13T13:28:38.680Z,96234.19
2019-03-13T13:31:45.806Z,96237.52
2019-03-13T13:34:52.760Z,96253.80
2019-03-13T13:37:59.827Z,96233.38
2019-03-13T13:41:07.126Z,96247.95
2019-03-13T13:44:16.086Z,96235.80
2019-03-13T13:47:23.210Z,96229.08
2019-03-13T13:50:30.424Z,96243.09
2019-03-13T13:53:37.621Z,96231.09
2019-03-13T13:56:44.614Z,96222.77
2019-03-13T13:59:51.692Z,96224.85
2019-03-13T14:02:58.677Z,96225.28
2019-03-13T14:06:05.720Z,96232.83
2019-03-13T14:09:13.043Z,96219.15
2019-03-13T14:12:20.335Z,96211.20
2019-03-13T14:15:27.415Z,96214.58
2019-03-13T14:18:34.782Z,96210.45
2019-03-13T14:21:41.792Z,96218.30
2019-03-13T14:24:48.948Z,96222.50
2019-03-13T14:27:56.019Z,96238.29
2019-03-13T14:31:03.219Z,96241.02
2019-03-13T14:34:10.277Z,96242.84
2019-03-13T14:37:17.233Z,96227.38
2019-03-13T14:40:24.267Z,96244.20
2019-03-13T14:43:31.200Z,96238.98
2019-03-13T14:46:38.358Z,96228.34
2019-03-13T14:49:45.291Z,96229.86
2019-03-13T14:52:53.642Z,96224.72
2019-03-13T14:56:00.589Z,96222.73
2019-03-13T14:59:07.949Z,96222.36
2019-03-13T15:02:14.819Z,96210.89
2019-03-13T15:05:21.894Z,96208.59
2019-03-13T15:08:28.833Z,96196.23
2019-03-13T15:11:35.758Z,96198.03
2019-03-13T15:14:42.709Z,96201.60
2019-03-13T15:17:52.857Z,96201.60
2019-03-13T15:20:58.601Z,96193.70
2019-03-13T15:24:05.688Z,96200.33
2019-03-13T15:27:12.765Z,96188.58
2019-03-13T15:30:21.783Z,96188.70
2019-03-13T15:33:28.837Z,96180.20
2019-03-13T15:36:35.896Z,96175.42
2019-03-13T15:39:42.763Z,96183.48
2019-03-13T15:42:49.697Z,96181.73
2019-03-13T15:45:56.622Z,96175.84
2019-03-13T15:49:03.465Z,96169.17
2019-03-13T15:52:10.579Z,96160.91
2019-03-13T15:55:17.853Z,96173.30
2019-03-13T15:58:26.776Z,96162.17
2019-03-13T16:01:34.097Z,96163.49
2019-03-13T16:04:41.094Z,96167.33
2019-03-13T16:07:48.106Z,96167.95
2019-03-13T16:10:56.823Z,96179.67
2019-03-13T16:14:03.909Z,96176.50
2019-03-13T16:17:11.183Z,96166.69
2019-03-13T16:20:18.636Z,96163.05
2019-03-13T16:23:25.666Z,96153.42
2019-03-13T16:26:34.044Z,96158.86
2019-03-13T16:29:40.955Z,96159.67
2019-03-13T16:32:47.794Z,96159.67
2019-03-13T16:35:54.792Z,96160.70
2019-03-13T16:39:01.845Z,96150.57
2019-03-13T16:42:12.001Z,96156.81
2019-03-13T16:45:19.373Z,96151.66
2019-03-13T16:48:27.366Z,96160.53
2019-03-13T16:51:34.397Z,96160.41
2019-03-13T16:54:41.423Z,96155.32
2019-03-13T16:57:48.884Z,96156.72
2019-03-13T17:00:56.686Z,96155.19
2019-03-13T17:04:03.788Z,96154.29
2019-03-13T17:07:10.705Z,96159.49
2019-03-13T17:10:18.980Z,96159.95
2019-03-13T17:13:26.351Z,96161.02
2019-03-13T17:16:33.455Z,96168.41
2019-03-13T17:19:40.426Z,96162.38
2019-03-13T17:22:47.617Z,96156.91
2019-03-13T17:25:54.573Z,96147.34
2019-03-13T17:29:04.981Z,96142.48
2019-03-13T17:32:12.253Z,96143.13
2019-03-13T17:35:19.719Z,96144.11
2019-03-13T17:38:26.620Z,96150.96
2019-03-13T17:41:33.630Z,96150.13
2019-03-13T17:44:40.590Z,96135.09
2019-03-13T17:47:47.590Z,96135.93
2019-03-13T17:50:54.637Z,96134.34
2019-03-13T17:54:02.712Z,96136.95
2019-03-13T17:57:09.801Z,96139.86
2019-03-13T18:00:25.163Z,96133.17
2019-03-13T18:03:34.883Z,96139.86
2019-03-13T18:06:41.823Z,96139.26
2019-03-13T18:09:48.881Z,96139.57
2019-03-13T18:12:56.133Z,96135.66
2019-03-13T18:16:03.072Z,96125.41
2019-03-13T18:19:12.894Z,96128.67
2019-03-13T18:22:20.061Z,96139.52
2019-03-13T18:25:27.035Z,96130.84
2019-03-13T18:28:33.944Z,96132.55
2019-03-13T18:31:40.996Z,96127.20
2019-03-13T18:34:47.985Z,96134.23
2019-03-13T18:37:54.920Z,96126.25
2019-03-13T18:41:01.984Z,96128.10
2019-03-13T18:44:09.097Z,96139.75
2019-03-13T18:47:16.071Z,96131.19
2019-03-13T18:50:23.117Z,96136.02
2019-03-13T18:53:30.503Z,96135.33
2019-03-13T18:56:38.651Z,96139.25
2019-03-13T18:59:45.729Z,96146.82
2019-03-13T19:02:53.810Z,96149.81
2019-03-13T19:06:00.754Z,96144.81
2019-03-13T19:09:08.550Z,96147.84
2019-03-13T19:12:17.149Z,96150.22
2019-03-13T19:15:24.326Z,96155.41
2019-03-13T19:18:31.230Z,96158.53
2019-03-13T19:21:38.177Z,96160.17
2019-03-13T19:24:45.181Z,96151.98
2019-03-13T19:27:52.691Z,96157.28
2019-03-13T19:31:00.735Z,96155.58
2019-03-13T19:34:10.903Z,96158.12
2019-03-13T19:37:17.853Z,96149.00
2019-03-13T19:40:24.874Z,96142.34
2019-03-13T19:43:32.029Z,96138.59
2019-03-13T19:46:38.934Z,96130.98
2019-03-13T19:49:45.972Z,96135.05
2019-03-13T19:52:54.049Z,96124.03
2019-03-13T19:56:01.122Z,96124.33
2019-03-13T19:59:09.842Z,96128.26
2019-03-13T20:02:16.914Z,96144.08
2019-03-13T20:05:25.570Z,96133.98
2019-03-13T20:08:32.717Z,96126.20
2019-03-13T20:11:39.556Z,96139.98
2019-03-13T20:14:46.392Z,96140.58
2019-03-13T20:17:53.397Z,96137.98
2019-03-13T20:21:00.445Z,96137.42
2019-03-13T20:24:07.650Z,96138.05
2019-03-13T20:27:15.000Z,96141.86
2019-03-13T20:30:22.194Z,96139.48
2019-03-13T20:33:29.102Z,96130.22
2019-03-13T20:36:36.016Z,96135.05
2019-03-13T20:39:43.982Z,96125.20
2019-03-13T20:42:51.034Z,96125.73
2019-03-13T20:45:57.862Z,96128.54
2019-03-13T20:49:04.891Z,96131.66
2019-03-13T20:52:12.110Z,96128.48
2019-03-13T20:55:19.200Z,96131.03
2019-03-13T20:58:26.231Z,96135.41
2019-03-13T21:01:33.246Z,96135.95
2019-03-13T21:04:41.032Z,96128.22
2019-03-13T21:07:48.548Z,96125.52
2019-03-13T21:10:55.708Z,96137.06
2019-03-13T21:14:02.659Z,96130.98
2019-03-13T21:17:09.945Z,96126.90
2019-03-13T21:20:17.517Z,96119.49
2019-03-13T21:23:25.518Z,96124.20
2019-03-13T21:26:34.164Z,96120.60
2019-03-13T21:29:42.130Z,96121.55
2019-03-13T21:32:49.133Z,96127.95
2019-03-13T21:35:55.995Z,96130.01
2019-03-13T21:39:03.238Z,96128.22
2019-03-13T21:42:12.120Z,96129.86
2019-03-13T21:45:22.954Z,96126.47
2019-03-13T21:48:27.910Z,96139.97
2019-03-13T21:51:35.008Z,96141.02
2019-03-13T21:54:41.927Z,96140.80
2019-03-13T21:57:51.617Z,96137.42
2019-03-13T22:00:57.690Z,96140.47
2019-03-13T22:04:07.695Z,96162.70
2019-03-13T22:07:14.119Z,96158.50
2019-03-13T22:10:23.246Z,96163.58
2019-03-13T22:13:30.497Z,96160.02
2019-03-13T22:16:37.554Z,96152.96
2019-03-13T22:19:44.513Z,96148.09
2019-03-13T22:22:51.556Z,96143.63
2019-03-13T22:25:58.572Z,96140.45
2019-03-13T22:29:05.849Z,96139.38
2019-03-13T22:32:13.460Z,96126.89
2019-03-13T22:35:20.716Z,96148.12
2019-03-13T22:38:27.613Z,96149.58
2019-03-13T22:41:36.660Z,96154.38
2019-03-13T22:44:43.558Z,96149.17
2019-03-13T22:47:51.597Z,96147.06
2019-03-13T22:51:01.862Z,96142.63
2019-03-13T22:54:07.456Z,96158.28
2019-03-13T22:57:14.706Z,96161.91
2019-03-13T23:01:00.132Z,96149.70
2019-03-13T23:04:09.428Z,96156.97
2019-03-13T23:07:16.547Z,96164.05
2019-03-13T23:10:32.020Z,96166.59
2019-03-13T23:13:39.202Z,96169.89
2019-03-13T23:16:46.002Z,96173.36
2019-03-13T23:19:52.954Z,96182.06
2019-03-13T23:22:59.970Z,96179.95
2019-03-13T23:26:07.388Z,96182.91
2019-03-13T23:29:14.281Z,96187.09
2019-03-13T23:32:21.325Z,96191.41
2019-03-13T23:35:28.272Z,96190.33
2019-03-13T23:38:35.310Z,96189.25
2019-03-13T23:41:42.327Z,96198.09
2019-03-13T23:44:49.374Z,96201.75
2019-03-13T23:47:56.412Z,96212.94
2019-03-13T23:51:03.398Z,96214.02
2019-03-13T23:54:10.739Z,96212.65
2019-03-13T23:57:21.312Z,96200.53
